Time;durP1;ratioP1;P1;durP2;ratioP2;P2;SDS_P1;SDS_P2;PMS_P1;PMS_P2;Temp;Humidity;BMP_temperature;BMP_pressure;BME280_temperature;BME280_humidity;BME280_pressure;Samples;Min_cycle;Max_cycle;Signal;HPM_P1;HPM_P2
2022/09/04 00:02:30;;;;;;;1.07;1.07;;;18.00;99.90;;;;;;5026361;28;20606;-60
2022/09/04 00:05:06;;;;;;;0.80;0.80;;;17.90;99.90;;;;;;5033823;28;20659;-62
2022/09/04 00:07:42;;;;;;;0.70;0.70;;;17.80;99.90;;;;;;5031112;28;20204;-61
2022/09/04 00:10:18;;;;;;;0.93;0.90;;;17.80;99.90;;;;;;5037034;28;20611;-61
2022/09/04 00:12:52;;;;;;;0.80;0.80;;;17.70;99.90;;;;;;5034019;28;20225;-61
2022/09/04 00:15:23;;;;;;;0.60;0.60;;;17.70;99.90;;;;;;5038146;28;20640;-62
2022/09/04 00:17:56;;;;;;;0.63;0.63;;;17.70;99.90;;;;;;5033823;28;20227;-61
2022/09/04 00:20:34;;;;;;;0.63;0.63;;;17.80;99.90;;;;;;5035833;28;20235;-62
2022/09/04 00:23:08;;;;;;;0.73;0.73;;;17.70;99.90;;;;;;5047240;28;20247;-62
2022/09/04 00:25:44;;;;;;;0.77;0.77;;;17.70;99.90;;;;;;5038036;28;20647;-62
2022/09/04 00:28:19;;;;;;;0.75;0.75;;;17.70;99.90;;;;;;5037950;28;20287;-63
2022/09/04 00:30:54;;;;;;;0.77;0.70;;;17.70;99.90;;;;;;5036064;28;20232;-61
2022/09/04 00:33:27;;;;;;;0.60;0.60;;;17.60;99.90;;;;;;5022335;28;20223;-61
2022/09/04 00:35:58;;;;;;;0.80;0.80;;;17.70;99.90;;;;;;5019725;28;20212;-62
2022/09/04 00:38:38;;;;;;;0.93;0.93;;;17.60;99.90;;;;;;5022686;28;20205;-61
2022/09/04 00:41:18;;;;;;;0.80;0.80;;;17.60;99.90;;;;;;5015230;28;20197;-62
2022/09/04 00:44:11;;;;;;;0.80;0.80;;;17.60;99.90;;;;;;5016492;28;20201;-61
2022/09/04 00:47:06;;;;;;;0.87;0.87;;;17.50;99.90;;;;;;5014840;28;20691;-62
2022/09/04 00:49:57;;;;;;;0.80;0.80;;;17.50;99.90;;;;;;5006465;28;20566;-62
2022/09/04 00:52:36;;;;;;;0.80;0.80;;;17.40;99.90;;;;;;5004635;28;20291;-61
2022/09/04 00:55:21;;;;;;;0.87;0.87;;;17.40;99.90;;;;;;5018206;28;20284;-61
2022/09/04 00:58:07;;;;;;;0.80;0.80;;;17.40;99.90;;;;;;5014368;28;20208;-62
2022/09/04 01:00:35;;;;;;;0.57;0.57;;;17.40;99.90;;;;;;5015936;28;20299;-62
2022/09/04 01:03:36;;;;;;;0.70;0.70;;;17.30;99.90;;;;;;5018318;28;20317;-62
2022/09/04 01:06:29;;;;;;;0.80;0.80;;;17.30;99.90;;;;;;5012645;28;20264;-61
2022/09/04 01:09:37;;;;;;;0.70;0.70;;;17.20;99.90;;;;;;5012686;28;20281;-62
2022/09/04 01:12:10;;;;;;;0.70;0.70;;;17.10;99.90;;;;;;4967582;28;20323;-61
2022/09/04 01:14:43;;;;;;;0.70;0.70;;;17.20;99.90;;;;;;5015044;28;20201;-62
2022/09/04 01:17:20;;;;;;;0.90;0.90;;;17.20;99.90;;;;;;5013227;28;20227;-61
2022/09/04 01:19:55;;;;;;;0.80;0.80;;;17.20;99.90;;;;;;5012408;28;20200;-61
2022/09/04 01:22:49;;;;;;;1.57;1.30;;;17.30;99.90;;;;;;5012882;28;20227;-61
2022/09/04 01:25:32;;;;;;;0.80;0.80;;;17.20;99.90;;;;;;5020992;28;20208;-62
2022/09/04 01:28:05;;;;;;;0.70;0.70;;;17.30;99.90;;;;;;5021077;28;20671;-62
2022/09/04 01:30:41;;;;;;;0.60;0.60;;;17.30;99.90;;;;;;5032313;28;20239;-62
2022/09/04 01:33:15;;;;;;;0.70;0.70;;;17.20;99.90;;;;;;5028553;28;20787;-61
2022/09/04 01:35:52;;;;;;;0.70;0.70;;;17.20;99.90;;;;;;5018627;28;20248;-62
2022/09/04 01:38:28;;;;;;;0.73;0.73;;;17.20;99.90;;;;;;5029784;28;20240;-61
2022/09/04 01:41:02;;;;;;;0.80;0.80;;;17.20;99.90;;;;;;5024504;28;20216;-62
2022/09/04 01:43:31;;;;;;;1.30;1.20;;;17.20;99.90;;;;;;5023671;28;20318;-61
2022/09/04 01:46:30;;;;;;;0.80;0.80;;;17.40;99.90;;;;;;5029048;28;20196;-61
2022/09/04 01:49:06;;;;;;;0.80;0.80;;;17.80;99.90;;;;;;5030916;28;20645;-62
2022/09/04 01:51:39;;;;;;;0.80;0.80;;;17.60;99.90;;;;;;5030529;28;20316;-61
2022/09/04 01:54:30;;;;;;;0.85;0.85;;;17.40;99.90;;;;;;5029455;28;20681;-61
2022/09/04 01:57:09;;;;;;;0.80;0.80;;;17.30;99.90;;;;;;5027171;28;20221;-62
2022/09/04 01:59:50;;;;;;;0.90;0.90;;;17.20;99.90;;;;;;5031476;28;20207;-61
2022/09/04 02:02:25;;;;;;;0.70;0.70;;;17.20;99.90;;;;;;5029454;28;20591;-62
2022/09/04 02:04:59;;;;;;;0.80;0.80;;;17.30;99.90;;;;;;5027063;28;20203;-61
2022/09/04 02:07:32;;;;;;;0.80;0.80;;;17.10;99.90;;;;;;5028880;28;20190;-61
2022/09/04 02:10:07;;;;;;;0.90;0.90;;;17.10;99.90;;;;;;5028983;28;20283;-61
2022/09/04 02:12:46;;;;;;;0.80;0.80;;;17.00;99.90;;;;;;5019711;28;20235;-61
2022/09/04 02:15:29;;;;;;;0.70;0.70;;;17.00;99.90;;;;;;5031413;28;20247;-61
2022/09/04 02:18:10;;;;;;;0.80;0.80;;;17.00;99.90;;;;;;5031632;28;20582;-60
2022/09/04 02:20:44;;;;;;;0.70;0.70;;;17.00;99.90;;;;;;5029706;28;20243;-61
2022/09/04 02:23:19;;;;;;;0.70;0.70;;;16.70;99.90;;;;;;5034455;28;20231;-61
2022/09/04 02:25:57;;;;;;;0.80;0.80;;;16.80;99.90;;;;;;5040385;28;20223;-61
2022/09/04 02:28:33;;;;;;;0.80;0.80;;;16.70;99.90;;;;;;5032084;28;20573;-62
2022/09/04 02:31:14;;;;;;;1.00;1.00;;;16.70;99.90;;;;;;5032385;28;20288;-60
2022/09/04 02:33:49;;;;;;;0.73;0.73;;;16.70;99.90;;;;;;5035976;28;20629;-61
2022/09/04 02:36:20;;;;;;;0.73;0.73;;;16.70;99.90;;;;;;5034458;28;20306;-61
2022/09/04 02:38:55;;;;;;;0.80;0.80;;;16.70;99.90;;;;;;5036416;28;20666;-62
2022/09/04 02:41:31;;;;;;;0.83;0.83;;;16.70;99.90;;;;;;5035613;28;20227;-61
2022/09/04 02:44:25;;;;;;;0.90;0.90;;;16.60;99.90;;;;;;5035720;28;20200;-62
2022/09/04 02:47:03;;;;;;;0.87;0.87;;;16.60;99.90;;;;;;5031111;28;20642;-61
2022/09/04 02:49:39;;;;;;;0.73;0.73;;;16.70;99.90;;;;;;5028716;28;20200;-61
2022/09/04 02:52:26;;;;;;;0.70;0.70;;;16.70;99.90;;;;;;5032889;28;20230;-63
2022/09/04 02:55:08;;;;;;;0.90;0.90;;;16.70;99.90;;;;;;5037073;28;20200;-61
2022/09/04 02:57:53;;;;;;;0.73;0.73;;;16.80;99.90;;;;;;5028750;28;20686;-61
2022/09/04 03:00:28;;;;;;;0.90;0.80;;;16.80;99.90;;;;;;5035514;28;20685;-61
2022/09/04 03:03:03;;;;;;;1.05;1.00;;;16.90;99.90;;;;;;5035333;28;20224;-61
2022/09/04 03:05:34;;;;;;;0.90;0.90;;;16.90;99.90;;;;;;5034192;28;20197;-60
2022/09/04 03:08:08;;;;;;;0.70;0.70;;;16.80;99.90;;;;;;5034649;28;20323;-61
2022/09/04 03:10:41;;;;;;;0.63;0.63;;;16.80;99.90;;;;;;5035331;28;20287;-62
2022/09/04 03:13:15;;;;;;;0.90;0.90;;;16.80;99.90;;;;;;5034527;28;20217;-62
2022/09/04 03:15:47;;;;;;;0.90;0.90;;;16.70;99.90;;;;;;5035099;28;20196;-61
2022/09/04 03:18:23;;;;;;;0.73;0.73;;;16.60;99.90;;;;;;5035277;28;20204;-61
2022/09/04 03:20:54;;;;;;;1.13;1.13;;;16.50;99.90;;;;;;5035321;28;20211;-61
2022/09/04 03:23:30;;;;;;;0.90;0.90;;;16.50;99.90;;;;;;5041436;28;20228;-62
2022/09/04 03:26:14;;;;;;;0.82;0.82;;;16.40;99.90;;;;;;5044164;28;20220;-61
2022/09/04 03:28:51;;;;;;;0.80;0.80;;;16.40;99.90;;;;;;5040138;28;20231;-60
2022/09/04 03:31:36;;;;;;;0.80;0.80;;;16.40;99.90;;;;;;5045793;28;20205;-61
2022/09/04 03:34:18;;;;;;;0.75;0.75;;;16.40;99.90;;;;;;5041453;28;20287;-61
2022/09/04 03:36:55;;;;;;;1.27;1.00;;;16.40;99.90;;;;;;5035566;28;20247;-60
2022/09/04 03:39:32;;;;;;;0.90;0.90;;;16.30;99.90;;;;;;5034841;28;20196;-60
2022/09/04 03:42:10;;;;;;;0.80;0.80;;;16.30;99.90;;;;;;5034746;28;20232;-61
2022/09/04 03:44:47;;;;;;;0.80;0.80;;;16.30;99.90;;;;;;5032518;28;20203;-61
2022/09/04 03:47:23;;;;;;;0.83;0.83;;;16.30;99.90;;;;;;5034321;28;20334;-61
2022/09/04 03:50:06;;;;;;;0.90;0.90;;;16.40;99.90;;;;;;5034496;28;20215;-62
2022/09/04 03:52:40;;;;;;;0.90;0.90;;;16.30;99.90;;;;;;5027758;28;20656;-60
2022/09/04 03:55:37;;;;;;;0.70;0.70;;;16.40;99.90;;;;;;5029668;28;20710;-61
2022/09/04 03:58:16;;;;;;;0.70;0.70;;;16.40;99.90;;;;;;5032663;28;20221;-61
2022/09/04 04:00:55;;;;;;;0.70;0.70;;;16.30;99.90;;;;;;5032358;28;20671;-61
2022/09/04 04:03:42;;;;;;;0.83;0.83;;;16.30;99.90;;;;;;5032084;28;20224;-61
2022/09/04 04:06:23;;;;;;;0.77;0.77;;;16.30;99.90;;;;;;5025500;28;20287;-61
2022/09/04 04:09:11;;;;;;;0.80;0.80;;;16.30;99.90;;;;;;5032090;28;20192;-61
2022/09/04 04:12:05;;;;;;;0.80;0.80;;;16.30;99.90;;;;;;5029686;28;20224;-61
2022/09/04 04:14:44;;;;;;;0.90;0.90;;;16.30;99.90;;;;;;5041925;28;20193;-61
2022/09/04 04:17:25;;;;;;;0.80;0.80;;;16.30;99.90;;;;;;5039972;28;20223;-62
2022/09/04 04:20:06;;;;;;;0.90;0.90;;;16.20;99.90;;;;;;5030034;28;20255;-61
2022/09/04 04:22:56;;;;;;;0.70;0.70;;;16.10;99.90;;;;;;5028169;28;20640;-62
2022/09/04 04:25:48;;;;;;;0.63;0.63;;;16.10;99.90;;;;;;5033675;28;20295;-61
2022/09/04 04:28:38;;;;;;;1.33;1.00;;;16.10;99.90;;;;;;5034766;28;20201;-61
2022/09/04 04:31:14;;;;;;;0.90;0.90;;;16.00;99.90;;;;;;5018422;28;20204;-62
2022/09/04 04:33:53;;;;;;;0.73;0.73;;;16.10;99.90;;;;;;5028022;28;20667;-61
2022/09/04 04:36:29;;;;;;;0.80;0.80;;;16.00;99.90;;;;;;5030171;28;20244;-61
2022/09/04 04:39:14;;;;;;;1.00;1.00;;;16.00;99.90;;;;;;5033687;28;20292;-62
2022/09/04 04:42:06;;;;;;;0.80;0.80;;;16.00;99.90;;;;;;5026145;28;20229;-62
2022/09/04 04:47:55;;;;;;;0.83;0.83;;;16.00;99.90;;;;;;5026415;28;20677;-62
2022/09/04 04:50:28;;;;;;;0.70;0.70;;;15.90;99.90;;;;;;5032803;28;20212;-61
2022/09/04 04:53:04;;;;;;;0.70;0.70;;;15.90;99.90;;;;;;5033446;28;20246;-62
2022/09/04 04:55:44;;;;;;;0.90;0.90;;;15.90;99.90;;;;;;5025708;28;20654;-62
2022/09/04 04:58:41;;;;;;;0.90;0.90;;;16.00;99.90;;;;;;5033163;28;20573;-61
2022/09/04 05:01:19;;;;;;;0.97;0.90;;;16.00;99.90;;;;;;5026892;28;20205;-62
2022/09/04 05:04:01;;;;;;;0.90;0.90;;;16.00;99.90;;;;;;5033500;28;20197;-61
2022/09/04 05:06:35;;;;;;;0.87;0.87;;;16.10;99.90;;;;;;5025697;28;20192;-61
2022/09/04 05:09:11;;;;;;;1.20;1.10;;;16.10;99.90;;;;;;5033157;28;20211;-60
2022/09/04 05:11:48;;;;;;;0.90;0.90;;;16.10;99.90;;;;;;5032970;28;20234;-61
2022/09/04 05:14:27;;;;;;;0.70;0.70;;;16.10;99.90;;;;;;5031358;28;20197;-61
2022/09/04 05:17:03;;;;;;;0.80;0.80;;;16.20;99.90;;;;;;5032462;28;20654;-61
2022/09/04 05:19:36;;;;;;;0.87;0.87;;;16.20;99.90;;;;;;5025019;28;20207;-61
2022/09/04 05:22:11;;;;;;;0.80;0.80;;;16.10;99.90;;;;;;5032478;28;20316;-60
2022/09/04 05:24:50;;;;;;;1.00;1.00;;;16.10;99.90;;;;;;5032793;28;20196;-61
2022/09/04 05:27:39;;;;;;;0.90;0.90;;;16.10;99.90;;;;;;5032285;28;20208;-60
2022/09/04 05:30:12;;;;;;;0.90;0.90;;;16.00;99.90;;;;;;5032737;28;20295;-61
2022/09/04 05:32:48;;;;;;;0.63;0.63;;;16.00;99.90;;;;;;5033137;28;20306;-60
2022/09/04 05:35:22;;;;;;;0.90;0.90;;;16.00;99.90;;;;;;5033933;28;20651;-60
2022/09/04 05:37:55;;;;;;;0.90;0.90;;;16.00;99.90;;;;;;5032498;28;20226;-60
2022/09/04 05:40:28;;;;;;;0.80;0.80;;;16.00;99.90;;;;;;5032755;28;20247;-61
2022/09/04 05:43:13;;;;;;;0.90;0.90;;;16.00;99.90;;;;;;5032137;28;20239;-61
2022/09/04 05:45:52;;;;;;;0.80;0.80;;;16.00;99.90;;;;;;5026464;28;20291;-61
2022/09/04 05:48:24;;;;;;;1.20;1.10;;;16.10;99.90;;;;;;5032027;28;20216;-61
2022/09/04 05:51:07;;;;;;;0.70;0.70;;;16.20;99.90;;;;;;5032421;28;20197;-62
2022/09/04 05:53:58;;;;;;;0.80;0.80;;;16.30;99.90;;;;;;5030630;28;20523;-61
2022/09/04 05:57:06;;;;;;;0.90;0.90;;;16.40;99.90;;;;;;5026388;28;20200;-60
2022/09/04 05:59:59;;;;;;;1.10;1.10;;;16.50;99.90;;;;;;5026145;28;20291;-60
2022/09/04 06:03:03;;;;;;;0.97;0.97;;;16.60;99.90;;;;;;5025431;28;20236;-61
2022/09/04 06:05:43;;;;;;;0.90;0.90;;;16.70;99.90;;;;;;4983865;28;20197;-60
2022/09/04 06:08:32;;;;;;;0.80;0.80;;;16.80;99.90;;;;;;5034806;28;20291;-62
2022/09/04 06:11:20;;;;;;;0.80;0.80;;;16.90;99.90;;;;;;5033879;28;20243;-60
2022/09/04 06:14:01;;;;;;;0.73;0.73;;;17.00;99.90;;;;;;5035823;28;20268;-61
2022/09/04 06:16:44;;;;;;;0.70;0.70;;;17.00;99.90;;;;;;5031422;28;20204;-63
2022/09/04 06:19:45;;;;;;;0.83;0.83;;;17.20;99.90;;;;;;5034141;28;20200;-62
2022/09/04 06:22:49;;;;;;;0.98;0.60;;;17.30;99.90;;;;;;5035680;28;20219;-61
2022/09/04 06:25:37;;;;;;;0.80;0.80;;;17.50;99.90;;;;;;5036312;28;20204;-60
2022/09/04 06:28:19;;;;;;;0.60;0.60;;;17.60;99.90;;;;;;5036770;28;20256;-62
2022/09/04 06:30:55;;;;;;;0.70;0.70;;;17.80;99.90;;;;;;5041452;28;20268;-60
2022/09/04 06:33:44;;;;;;;0.60;0.60;;;17.80;99.90;;;;;;5046619;28;20219;-61
2022/09/04 06:36:41;;;;;;;1.27;0.73;;;17.90;99.90;;;;;;5039037;28;20239;-61
2022/09/04 06:39:31;;;;;;;0.70;0.70;;;18.10;99.90;;;;;;5034044;28;20229;-61
2022/09/04 06:42:12;;;;;;;0.80;0.80;;;18.30;99.90;;;;;;5029478;28;20272;-61
2022/09/04 06:44:54;;;;;;;0.60;0.60;;;18.60;99.90;;;;;;5030720;28;20685;-61
2022/09/04 06:47:32;;;;;;;0.70;0.70;;;18.80;99.90;;;;;;5031476;28;20615;-67
2022/09/04 06:50:16;;;;;;;0.67;0.67;;;18.80;99.90;;;;;;5031734;28;20201;-67
2022/09/04 06:52:54;;;;;;;0.70;0.70;;;18.70;99.90;;;;;;5025876;28;20316;-67
2022/09/04 06:55:29;;;;;;;0.90;0.90;;;18.70;99.90;;;;;;5036448;28;20258;-67
2022/09/04 06:58:15;;;;;;;0.70;0.70;;;18.70;99.90;;;;;;5039786;28;20224;-66
2022/09/04 07:00:52;;;;;;;0.70;0.70;;;18.70;99.90;;;;;;5032828;28;20296;-69
2022/09/04 07:03:44;;;;;;;0.67;0.67;;;18.80;99.90;;;;;;5032778;28;20244;-67
2022/09/04 07:06:19;;;;;;;0.70;0.70;;;18.90;99.90;;;;;;5039952;28;20205;-67
2022/09/04 07:08:57;;;;;;;0.60;0.60;;;19.00;99.90;;;;;;5041512;28;20404;-68
2022/09/04 07:11:44;;;;;;;0.70;0.70;;;19.10;99.90;;;;;;5030935;28;20274;-67
2022/09/04 07:14:43;;;;;;;0.60;0.60;;;19.20;99.90;;;;;;5028655;28;20219;-67
2022/09/04 07:17:17;;;;;;;0.70;0.70;;;19.30;99.90;;;;;;5027779;28;20822;-67
2022/09/04 07:20:19;;;;;;;0.90;0.80;;;19.40;99.90;;;;;;5034020;28;20274;-68
2022/09/04 07:23:23;;;;;;;0.90;0.90;;;19.50;99.90;;;;;;5028948;28;20224;-68
2022/09/04 07:26:03;;;;;;;0.87;0.87;;;19.70;99.90;;;;;;5034126;28;20204;-67
2022/09/04 07:28:51;;;;;;;0.80;0.80;;;19.80;99.90;;;;;;5033803;28;20706;-68
2022/09/04 07:31:24;;;;;;;0.80;0.80;;;20.00;99.90;;;;;;5034788;28;20211;-67
2022/09/04 07:33:57;;;;;;;0.63;0.63;;;20.20;99.90;;;;;;5036066;28;20663;-66
2022/09/04 07:36:35;;;;;;;0.80;0.80;;;20.40;99.90;;;;;;5048237;28;20204;-66
2022/09/04 07:39:10;;;;;;;0.60;0.60;;;20.50;99.90;;;;;;5041044;28;20284;-65
2022/09/04 07:41:46;;;;;;;0.60;0.60;;;20.70;99.90;;;;;;5038724;28;20315;-66
2022/09/04 07:44:23;;;;;;;0.60;0.60;;;20.80;99.90;;;;;;5036450;28;20581;-66
2022/09/04 07:46:59;;;;;;;0.70;0.70;;;21.00;99.90;;;;;;5036867;28;20631;-67
2022/09/04 07:49:34;;;;;;;0.70;0.70;;;21.20;99.90;;;;;;5033981;28;20196;-68
2022/09/04 07:52:10;;;;;;;0.90;0.90;;;21.40;99.90;;;;;;5032127;28;20660;-66
2022/09/04 07:55:07;;;;;;;0.50;0.50;;;21.50;99.90;;;;;;5045935;28;20388;-66
2022/09/04 07:58:02;;;;;;;0.50;0.50;;;21.50;99.90;;;;;;5022820;28;20312;-67
2022/09/04 08:00:33;;;;;;;0.60;0.60;;;21.60;99.90;;;;;;5029243;28;20288;-67
2022/09/04 08:03:21;;;;;;;0.77;0.77;;;21.70;99.90;;;;;;5022829;28;20231;-67
2022/09/04 08:05:55;;;;;;;0.60;0.60;;;21.80;99.90;;;;;;5023133;28;20201;-67
2022/09/04 08:08:58;;;;;;;0.70;0.70;;;21.90;99.90;;;;;;5025172;28;20193;-67
2022/09/04 08:11:41;;;;;;;0.80;0.80;;;22.00;99.90;;;;;;5024022;28;20228;-66
2022/09/04 08:14:36;;;;;;;0.80;0.80;;;22.10;99.90;;;;;;5033119;28;20204;-66
2022/09/04 08:17:35;;;;;;;0.75;0.75;;;22.20;99.90;;;;;;5030222;28;20586;-66
2022/09/04 08:20:12;;;;;;;0.80;0.80;;;22.40;99.90;;;;;;5030112;28;20196;-66
2022/09/04 08:22:47;;;;;;;0.73;0.73;;;22.60;99.90;;;;;;5027664;28;20225;-66
2022/09/04 08:25:20;;;;;;;0.80;0.80;;;22.50;99.90;;;;;;5037119;28;20294;-67
2022/09/04 08:28:10;;;;;;;0.70;0.70;;;22.60;99.90;;;;;;5034892;28;20200;-66
2022/09/04 08:30:42;;;;;;;0.90;0.90;;;22.60;99.90;;;;;;5039196;28;20560;-67
2022/09/04 08:33:36;;;;;;;0.60;0.60;;;22.70;99.90;;;;;;5038578;28;20251;-65
2022/09/04 08:36:15;;;;;;;0.80;0.80;;;22.90;99.90;;;;;;5036442;28;20220;-67
2022/09/04 08:39:02;;;;;;;0.73;0.73;;;23.10;99.90;;;;;;5035283;28;20232;-66
2022/09/04 08:42:01;;;;;;;0.85;0.85;;;23.20;99.90;;;;;;5029541;28;20664;-67
2022/09/04 08:45:07;;;;;;;0.70;0.70;;;23.30;99.90;;;;;;5035037;28;20711;-67
2022/09/04 08:48:13;;;;;;;0.70;0.70;;;23.40;99.90;;;;;;5028624;28;20236;-66
2022/09/04 08:51:13;;;;;;;0.70;0.70;;;23.40;99.90;;;;;;5027758;28;20203;-67
2022/09/04 08:54:07;;;;;;;0.80;0.80;;;23.50;99.90;;;;;;5031842;28;20283;-65
2022/09/04 08:56:41;;;;;;;0.80;0.80;;;23.80;99.90;;;;;;5024122;28;20680;-66
2022/09/04 08:59:48;;;;;;;0.63;0.63;;;24.00;99.90;;;;;;5026282;28;20220;-65
2022/09/04 09:02:39;;;;;;;0.65;0.65;;;24.20;99.90;;;;;;5031298;28;20248;-65
2022/09/04 09:05:57;;;;;;;0.55;0.55;;;24.40;99.90;;;;;;5028330;28;20284;-67
2022/09/04 09:08:44;;;;;;;0.93;0.93;;;24.40;99.90;;;;;;5030266;28;20196;-65
2022/09/04 09:11:46;;;;;;;0.70;0.70;;;24.50;99.90;;;;;;5036251;28;20193;-65
2022/09/04 09:14:40;;;;;;;0.80;0.80;;;24.50;99.90;;;;;;5029157;28;20299;-66
2022/09/04 09:17:12;;;;;;;6.43;1.10;;;24.40;99.90;;;;;;5029304;28;20212;-66
2022/09/04 09:19:47;;;;;;;0.57;0.57;;;24.30;99.90;;;;;;5031153;28;20362;-64
2022/09/04 09:22:37;;;;;;;0.65;0.65;;;24.30;99.90;;;;;;5026792;28;20239;-66
2022/09/04 09:25:20;;;;;;;0.57;0.57;;;24.40;99.90;;;;;;5030260;28;20197;-65
2022/09/04 09:28:41;;;;;;;0.60;0.60;;;24.60;99.90;;;;;;5029966;28;20213;-65
2022/09/04 09:31:42;;;;;;;0.70;0.70;;;25.00;99.90;;;;;;5038131;28;20287;-66
2022/09/04 09:34:54;;;;;;;0.50;0.50;;;25.20;99.90;;;;;;5033654;28;20224;-66
2022/09/04 09:38:00;;;;;;;0.55;0.55;;;25.40;99.90;;;;;;5035453;28;20234;-66
2022/09/04 09:40:59;;;;;;;0.77;0.77;;;25.50;99.90;;;;;;5025353;28;20224;-66
2022/09/04 09:44:10;;;;;;;0.60;0.60;;;25.50;99.90;;;;;;5024906;28;20228;-67
2022/09/04 09:47:08;;;;;;;1.65;0.70;;;25.60;99.90;;;;;;5027208;28;20232;-66
2022/09/04 09:50:10;;;;;;;0.43;0.43;;;25.70;99.90;;;;;;5016577;28;20314;-66
2022/09/04 09:53:08;;;;;;;0.65;0.65;;;25.50;99.90;;;;;;5032512;28;20314;-66
2022/09/04 09:56:11;;;;;;;0.73;0.73;;;25.60;99.90;;;;;;5040057;28;20227;-66
2022/09/04 09:59:04;;;;;;;0.68;0.68;;;25.90;99.90;;;;;;5026315;28;20300;-67
2022/09/04 10:01:56;;;;;;;0.68;0.68;;;25.90;99.90;;;;;;5027091;28;20222;-68
2022/09/04 10:04:50;;;;;;;0.93;0.80;;;26.00;99.90;;;;;;5031348;28;20671;-66
2022/09/04 10:07:53;;;;;;;0.70;0.70;;;26.30;99.90;;;;;;5027987;28;20570;-68
2022/09/04 10:10:46;;;;;;;0.38;0.38;;;26.40;99.90;;;;;;5031782;28;20204;-68
2022/09/04 10:14:07;;;;;;;0.82;0.70;;;26.50;99.90;;;;;;5039137;28;20217;-68
2022/09/04 10:17:09;;;;;;;0.60;0.60;;;26.30;99.90;;;;;;5022719;28;20201;-67
2022/09/04 10:20:03;;;;;;;0.73;0.73;;;26.30;99.90;;;;;;5041408;28;20302;-68
2022/09/04 10:23:07;;;;;;;0.60;0.60;;;26.30;99.90;;;;;;5036678;28;20228;-67
2022/09/04 10:25:56;;;;;;;0.50;0.50;;;26.40;99.90;;;;;;5032497;28;20203;-67
2022/09/04 10:28:55;;;;;;;0.70;0.63;;;26.70;99.90;;;;;;5033310;28;20204;-67
2022/09/04 10:31:55;;;;;;;0.52;0.52;;;26.70;99.90;;;;;;5022883;28;20262;-67
2022/09/04 10:34:57;;;;;;;0.47;0.47;;;26.60;99.90;;;;;;5066822;22;20219;-61
2022/09/04 10:37:38;;;;;;;0.50;0.50;;;26.40;99.90;;;;;;5049729;28;20496;-63
2022/09/04 10:43:19;;;;;;;0.50;0.50;;;26.60;99.90;;;;;;5053586;28;20203;-61
2022/09/04 10:45:47;;;;;;;0.50;0.50;;;26.90;99.90;;;;;;5047394;28;20291;-60
2022/09/04 10:48:39;;;;;;;0.50;0.50;;;27.00;99.90;;;;;;5052878;28;20753;-60
2022/09/04 10:51:38;;;;;;;0.50;0.50;;;27.20;99.90;;;;;;5049428;28;20254;-60
2022/09/04 10:54:24;;;;;;;0.55;0.55;;;27.50;99.90;;;;;;5052786;28;20240;-61
2022/09/04 10:57:04;;;;;;;0.60;0.60;;;27.50;99.90;;;;;;5055122;28;20658;-62
2022/09/04 10:59:50;;;;;;;0.50;0.50;;;27.50;99.90;;;;;;5047638;28;20216;-61
2022/09/04 11:02:39;;;;;;;0.60;0.60;;;27.50;99.90;;;;;;5054331;28;20231;-61
2022/09/04 11:05:35;;;;;;;0.60;0.60;;;27.70;99.90;;;;;;5042950;28;20246;-62
2022/09/04 11:08:26;;;;;;;0.70;0.70;;;27.70;99.90;;;;;;5055172;28;20204;-63
2022/09/04 11:11:06;;;;;;;0.77;0.77;;;27.70;99.90;;;;;;5056689;28;20576;-61
2022/09/04 11:14:05;;;;;;;0.60;0.60;;;27.80;99.90;;;;;;5048693;28;20693;-63
2022/09/04 11:17:00;;;;;;;0.40;0.40;;;27.90;99.90;;;;;;5047914;28;20232;-63
2022/09/04 11:20:00;;;;;;;0.60;0.60;;;28.00;99.90;;;;;;5047220;28;20219;-61
2022/09/04 11:23:01;;;;;;;0.60;0.60;;;27.90;99.90;;;;;;5046971;28;20840;-62
2022/09/04 11:26:04;;;;;;;0.50;0.50;;;28.00;99.90;;;;;;5047277;28;20646;-61
2022/09/04 11:29:11;;;;;;;0.60;0.60;;;28.10;99.90;;;;;;5008156;28;20234;-61
2022/09/04 11:31:59;;;;;;;0.70;0.70;;;28.20;99.90;;;;;;5054951;28;20231;-61
2022/09/04 11:35:02;;;;;;;0.65;0.65;;;28.40;99.90;;;;;;5051966;28;20274;-61
2022/09/04 11:38:02;;;;;;;0.40;0.40;;;28.60;99.90;;;;;;5005120;28;20290;-61
2022/09/04 11:40:56;;;;;;;0.50;0.50;;;28.80;99.90;;;;;;5046842;28;20224;-60
2022/09/04 11:43:52;;;;;;;0.50;0.50;;;29.00;99.90;;;;;;5055110;28;20251;-60
2022/09/04 11:46:37;;;;;;;0.50;0.50;;;28.80;99.90;;;;;;5055040;28;20200;-63
2022/09/04 11:49:37;;;;;;;0.50;0.50;;;28.90;99.90;;;;;;5044559;28;20232;-62
2022/09/04 11:52:21;;;;;;;0.50;0.50;;;29.00;99.90;;;;;;5048570;28;20204;-60
2022/09/04 11:55:15;;;;;;;0.50;0.50;;;28.90;99.90;;;;;;5045138;28;20224;-61
2022/09/04 11:57:58;;;;;;;0.43;0.43;;;28.90;99.90;;;;;;5051292;28;20207;-62
2022/09/04 12:00:27;;;;;;;0.50;0.50;;;28.80;99.90;;;;;;5052268;28;20308;-61
2022/09/04 12:03:26;;;;;;;0.60;0.60;;;28.80;99.90;;;;;;5056380;28;20196;-61
2022/09/04 12:06:08;;;;;;;0.55;0.55;;;28.80;99.90;;;;;;5043573;28;20280;-63
2022/09/04 12:08:54;;;;;;;0.95;0.73;;;28.90;99.90;;;;;;5050537;28;20208;-60
2022/09/04 12:11:39;;;;;;;0.60;0.60;;;29.10;99.90;;;;;;5049398;28;20207;-61
2022/09/04 12:14:23;;;;;;;0.60;0.60;;;29.20;99.90;;;;;;5055515;28;20311;-62
2022/09/04 12:17:24;;;;;;;0.85;0.85;;;29.40;99.90;;;;;;5048024;28;20212;-60
2022/09/04 12:20:32;;;;;;;0.60;0.60;;;29.40;99.90;;;;;;5046327;28;20230;-61
2022/09/04 12:23:22;;;;;;;0.50;0.50;;;29.40;99.90;;;;;;5050504;28;20286;-61
2022/09/04 12:26:11;;;;;;;0.40;0.40;;;29.40;99.90;;;;;;5033541;28;20323;-61
2022/09/04 12:29:28;;;;;;;0.45;0.45;;;29.20;99.90;;;;;;5046824;28;20203;-61
2022/09/04 12:32:15;;;;;;;0.50;0.50;;;29.00;99.90;;;;;;4948990;29;20215;-60
2022/09/04 12:35:09;;;;;;;0.40;0.40;;;29.00;99.90;;;;;;5053128;28;20326;-64
2022/09/04 12:38:08;;;;;;;0.60;0.60;;;29.00;99.90;;;;;;5047176;28;20295;-61
2022/09/04 12:40:45;;;;;;;0.50;0.50;;;29.20;99.90;;;;;;5037407;28;20228;-61
2022/09/04 12:43:33;;;;;;;0.40;0.40;;;29.30;99.90;;;;;;5052605;28;20227;-62
2022/09/04 12:46:15;;;;;;;0.50;0.47;;;29.40;99.90;;;;;;5050203;28;20206;-61
2022/09/04 12:48:57;;;;;;;0.45;0.45;;;29.30;99.90;;;;;;5047115;28;20196;-61
2022/09/04 12:51:29;;;;;;;0.52;0.52;;;29.20;99.90;;;;;;5053769;28;20612;-63
2022/09/04 12:54:10;;;;;;;0.50;0.50;;;28.90;99.90;;;;;;5053005;28;20247;-61
2022/09/04 12:56:46;;;;;;;0.50;0.50;;;29.10;99.90;;;;;;5046378;28;20236;-63
2022/09/04 12:59:31;;;;;;;0.47;0.47;;;29.00;99.90;;;;;;5052563;28;20231;-61
2022/09/04 13:02:05;;;;;;;0.50;0.50;;;28.90;99.90;;;;;;5053435;28;20654;-62
2022/09/04 13:04:48;;;;;;;0.40;0.40;;;29.00;99.90;;;;;;5047844;28;20646;-63
2022/09/04 13:07:31;;;;;;;0.40;0.40;;;29.10;99.90;;;;;;5051610;28;20204;-61
2022/09/04 13:10:09;;;;;;;0.50;0.50;;;29.20;99.90;;;;;;5042964;28;20200;-62
2022/09/04 13:12:43;;;;;;;0.52;0.52;;;29.20;99.90;;;;;;5047159;28;20235;-62
2022/09/04 13:15:27;;;;;;;0.55;0.50;;;29.40;99.90;;;;;;5052432;28;20272;-63
2022/09/04 13:18:13;;;;;;;0.60;0.60;;;29.40;99.90;;;;;;5053093;28;20224;-64
2022/09/04 13:20:47;;;;;;;0.65;0.65;;;29.40;99.90;;;;;;5046045;28;20220;-60
2022/09/04 13:23:28;;;;;;;0.70;0.70;;;29.40;99.90;;;;;;5053454;28;20245;-62
2022/09/04 13:26:12;;;;;;;0.40;0.40;;;29.40;99.90;;;;;;5053731;28;20291;-63
2022/09/04 13:28:52;;;;;;;0.70;0.70;;;29.40;99.90;;;;;;5047049;28;20206;-62
2022/09/04 13:31:32;;;;;;;0.30;0.30;;;29.60;99.90;;;;;;5052692;28;20295;-62
2022/09/04 13:34:06;;;;;;;0.60;0.60;;;29.70;99.90;;;;;;5052801;28;20231;-63
2022/09/04 13:36:44;;;;;;;0.80;0.80;;;29.80;99.90;;;;;;5048479;28;20200;-62
2022/09/04 13:39:39;;;;;;;1.55;0.85;;;29.70;99.90;;;;;;5053275;28;20250;-63
2022/09/04 13:42:28;;;;;;;0.75;0.50;;;29.70;99.90;;;;;;5052736;28;20206;-63
2022/09/04 13:45:04;;;;;;;0.50;0.50;;;29.60;99.90;;;;;;5052050;28;20224;-63
2022/09/04 13:47:39;;;;;;;0.50;0.50;;;29.20;99.90;;;;;;5039148;28;20246;-63
2022/09/04 13:50:16;;;;;;;0.50;0.50;;;29.10;99.90;;;;;;5042399;28;20196;-63
2022/09/04 13:52:50;;;;;;;0.60;0.60;;;29.30;99.90;;;;;;5050202;28;20650;-63
2022/09/04 13:55:22;;;;;;;0.60;0.60;;;29.30;99.90;;;;;;5052023;28;20211;-62
2022/09/04 13:57:57;;;;;;;0.73;0.73;;;29.50;99.90;;;;;;5052318;28;20204;-62
2022/09/04 14:00:25;;;;;;;0.60;0.60;;;29.50;99.90;;;;;;5051992;28;20247;-63
2022/09/04 14:02:59;;;;;;;2.80;0.80;;;29.40;99.90;;;;;;5052360;28;20210;-63
2022/09/04 14:05:29;;;;;;;1.95;0.70;;;29.50;99.90;;;;;;5052633;28;20200;-63
2022/09/04 14:08:02;;;;;;;0.38;0.38;;;29.50;99.90;;;;;;5052550;28;20275;-62
2022/09/04 14:10:45;;;;;;;0.40;0.40;;;29.50;99.90;;;;;;5041785;28;20196;-63
2022/09/04 14:13:23;;;;;;;0.40;0.40;;;29.50;99.90;;;;;;5053313;28;20226;-62
2022/09/04 14:16:02;;;;;;;0.50;0.50;;;29.50;99.90;;;;;;5052124;28;20204;-63
2022/09/04 14:19:08;;;;;;;0.98;0.52;;;29.50;99.90;;;;;;5049271;28;20241;-63
2022/09/04 14:22:01;;;;;;;0.50;0.50;;;29.60;99.90;;;;;;5046813;28;20216;-62
2022/09/04 14:24:34;;;;;;;0.43;0.43;;;29.60;99.90;;;;;;5043280;28;20231;-63